• Join FlightAware (Why Join?)
  • Login
  • US Flag 
08:16PM EST


 

Airport Tracker/Info


-or-


 

Live Flight TrackerFlight Track Log ✈ N368EA ✈ 15-May-2013 ✈ KMEI - KEKM

Flight Track Log - Related Links

Times and Time Zones

All times are in EDT time to prevent confusion due to time zone crossing. See the N368EA flight status page for this flight to view local times or setup timezone preferences in your user account.

Time Position Orientation Groundspeed Altitude Reporting Facility
EDT Latitude Longitude Course Direction KTS MPH feet Rate Location/Type
10:27PM 32.2928 -88.8042 280° West 184 212 3,700  Level Memphis Center
10:28PM 32.3017 -88.8656 280° West 223 257 7,100 2,820 Climbing Memphis Center
10:29PM 32.3725 -88.8494 11° North 172 198 9,400 2,400 Climbing Memphis Center
10:30PM 32.4536 -88.8261 14° North 211 243 12,000 2,460 Climbing Memphis Center
10:31PM 32.5411 -88.8022 13° North 280 322 14,400 2,100 Climbing Memphis Center
10:32PM 32.6306 -88.7761 14° North 307 353 16,200 1,740 Climbing Memphis Center
10:33PM 32.7283 -88.7522 12° North 339 390 17,900 1,620 Climbing Memphis Center
10:34PM 32.8281 -88.7256 13° North 359 413 19,500 1,260 Climbing Memphis Center
10:35PM 32.9239 -88.6967 14° North 359 413 20,500 960 Climbing Memphis Center
10:36PM 33.0217 -88.6725 12° North 354 407 21,500 1,200 Climbing Memphis Center
10:37PM 33.1256 -88.6431 13° North 361 415 23,000 1,500 Climbing Memphis Center
10:38PM 33.2294 -88.6139 13° North 373 429 24,600 1,500 Climbing Memphis Center
10:39PM 33.3378 -88.5867 12° North 378 435 26,100 1,500 Climbing Memphis Center
10:40PM 33.4583 -88.5519 14° North 396 456 27,600 1,260 Climbing Memphis Center
10:41PM 33.5683 -88.5197 14° North 402 463 28,700 1,080 Climbing Memphis Center
10:42PM 33.6828 -88.4900 12° North 409 471 29,800 1,080 Climbing Memphis Center
10:43PM 33.7992 -88.4575 13° North 419 482 30,900 900 Climbing Memphis Center
10:44PM 33.9031 -88.4275 13° North 419 482 31,700 900 Climbing Memphis Center
10:45PM 34.0214 -88.3972 12° North 424 488 32,700 960 Climbing Memphis Center
10:46PM 34.1400 -88.3619 14° North 429 494 33,700 960 Climbing Memphis Center
10:47PM 34.2606 -88.3317 12° North 429 494 34,700 600 Climbing Memphis Center
10:48PM 34.3808 -88.2961 14° North 434 499 35,000 120 Climbing Memphis Center
10:49PM 34.5075 -88.2628 12° North 445 512 35,000  Level Memphis Center
10:50PM 34.6364 -88.2242 14° North 458 527 35,000  Level Memphis Center
10:51PM 34.7672 -88.1856 14° North 470 541 35,000 360 Level Memphis Center
10:52PM 34.8978 -88.1417 15° North 482 555 35,800 900 Climbing Memphis Center
10:53PM 35.0222 -88.1053 13° North 471 542 36,800 900 Climbing Memphis Center
10:54PM 35.1428 -88.0792 10° North 449 517 37,700 960 Climbing Memphis Center
10:55PM 35.2633 -88.0481 12° North 444 511 38,800 1,020 Climbing Memphis Center
10:56PM 35.3814 -88.0142 13° North 438 504 39,800 960 Climbing Memphis Center
10:57PM 35.4936 -87.9831 13° North 421 484 40,800 600 Climbing Memphis Center
10:58PM 35.6056 -87.9542 12° North 408 470 41,000 60 Climbing Memphis Center
10:59PM 35.7197 -87.9228 13° North 414 476 41,000  Level Memphis Center
11:00PM 35.8400 -87.8886 13° North 429 494 41,000  Level Memphis Center
11:01PM 35.9581 -87.8567 11° North 434 499 41,000  Level Memphis Center
11:02PM 36.0886 -87.8167 14° North 434 499 41,000  Level Memphis Center
11:03PM 36.2111 -87.7822 13° North 434 499 41,000  Level Memphis Center
11:04PM 36.3333 -87.7472 13° North 439 505 41,000  Level Memphis Center
11:05PM 36.4556 -87.7150 12° North 449 517 41,000  Level Memphis Center
11:06PM 36.5797 -87.6747 15° North 449 517 41,000  Level Memphis Center
11:07PM 36.7019 -87.6397 13° North 449 517 41,000  Level Memphis Center
11:09PM 36.9328 -87.5719 13° North 454 522 41,000  Level Indianapolis Center
11:10PM 37.0572 -87.5358 13° North 454 522 41,000  Level Indianapolis Center
11:11PM 37.1825 -87.4992 13° North 454 522 41,000  Level Indianapolis Center
11:12PM 37.3097 -87.4625 13° North 460 529 41,100  Climbing Indianapolis Center
11:13PM 37.4358 -87.4247 13° North 461 531 41,000 -60 Descending Indianapolis Center
11:14PM 37.5631 -87.3875 13° North 464 534 41,000  Level Indianapolis Center
11:15PM 37.6903 -87.3503 13° North 465 535 41,000  Level Indianapolis Center
11:16PM 37.7994 -87.3197 12° North 453 521 41,000  Level Indianapolis Center
11:17PM 37.9436 -87.2764 13° North 441 507 41,000  Level Indianapolis Center
11:18PM 38.0614 -87.2411 13° North 433 498 41,100 240 Climbing Indianapolis Center
11:19PM 38.1797 -87.2056 13° North 432 497 41,600 540 Climbing Indianapolis Center
11:20PM 38.2794 -87.1778 12° North 431 496 42,200 660 Climbing Indianapolis Center
11:21PM 38.4158 -87.1344 14° North 424 488 43,000 360 Climbing Indianapolis Center
11:22PM 38.5128 -87.1053 13° North 426 490 43,000  Level Indianapolis Center
11:23PM 38.6533 -87.0625 13° North 429 494 43,000  Level Indianapolis Center
11:24PM 38.7722 -87.0264 13° North 436 502 43,000  Level Indianapolis Center
11:25PM 38.8906 -86.9903 13° North 435 501 43,000  Level Indianapolis Center
11:26PM 39.0100 -86.9550 13° North 438 504 43,000  Level Indianapolis Center
11:27PM 39.1294 -86.9178 14° North 439 505 43,000  Level Indianapolis Center
11:28PM 39.2389 -86.8842 13° North 438 504 43,000  Level Indianapolis Center
11:29PM 39.3578 -86.8467 14° North 439 505 43,000  Level Indianapolis Center
11:30PM 39.4764 -86.8103 13° North 437 503 43,000  Level Indianapolis Center
11:31PM 39.5950 -86.7733 13° North 438 504 43,000  Level Indianapolis Center
11:32PM 39.7383 -86.7286 13° North 438 504 43,000  Level Indianapolis Center
11:33PM 39.8586 -86.6911 13° North 440 506 43,000  Level Indianapolis Center
11:34PM 39.9797 -86.6528 14° North 443 510 43,000 -60 Level Indianapolis Center
11:35PM 40.1011 -86.6136 14° North 445 512 42,900 -360 Descending Indianapolis Center
11:36PM 40.1478 -86.5981 14° North 443 510 42,500 -1,980 Descending Chicago Center
11:37PM 40.2667 -86.5594 14° North 441 507 40,200 -2,340 Descending Chicago Center
11:38PM 40.3822 -86.5219 14° North 434 499 37,800 -2,460 Descending Chicago Center
11:39PM 40.4967 -86.4869 13° North 425 489 35,200 -2,880 Descending Chicago Center
11:40PM 40.6169 -86.4506 13° North 438 504 32,000 -3,300 Descending Chicago Center
11:41PM 40.7400 -86.4100 14° North 441 507 28,600 -3,300 Descending Chicago Center
11:42PM 40.8583 -86.3697 14° North 440 506 25,400 -3,240 Descending Chicago Center
11:43PM 40.9789 -86.3314 13° North 443 510 22,100 -3,240 Descending Chicago Center
11:44PM 41.0919 -86.2944 14° North 429 494 18,900 -3,300 Descending Chicago Center
11:45PM 41.1983 -86.2600 14° North 404 465 15,500 -3,300 Descending Chicago Center
11:46PM 41.2969 -86.2283 14° North 369 425 12,300 -2,820 Descending Chicago Center
11:47PM 41.3847 -86.1983 14° North 330 380 9,900 -2,460 Descending Chicago Center
11:48PM 41.4636 -86.1700 15° North 298 343 7,300 -2,400 Descending Chicago Center
11:49PM 41.5392 -86.1450 14° North 285 328 5,100 -1,740 Descending Chicago Center
11:50PM 41.6075 -86.1225 14° North 263 303 3,900 -1,020 Descending Chicago Center
11:51PM 41.6569 -86.1108 10° North 188 216 3,100 -720 Descending Chicago Center
11:52PM 41.6986 -86.1094 North 161 185 2,500 -840 Descending Chicago Center
11:53PM 41.7194 -86.0689 55° Northeast 151 174 1,500 -780 Descending Chicago Center
11:54PM 41.7211 -86.0175 87° East 139 160 1,000 -540 Descending Chicago Center